< < Back
Terminal Aerodrome Forecast


Current Version              Previous Versions:   1  2  3  4  5  6  7  8  9  

Terminal Aerodrome Forecast

041
FTUS42 KILM 221100
TAFFLO
TAF
KFLO 221120Z 2212/2312 06005KT P6SM SKC
     FM221700 11008KT P6SM SKC
     FM230000 08004KT P6SM SKC=

Latest METAR

334
SAUS70 KWBC 230500 RRA
MTRFLO
METAR KFLO 230453Z 05003KT 10SM CLR 06/02 A3030 RMK AO2 SLP258 T00610022
401611028


USA.gov is the U.S. government's official web portal to all federal, state and local government web resources and services.